sensor_id;sensor_type;location;lat;lon;timestamp;pressure;altitude;pressure_sealevel;temperature
15062;BMP180;7630;50.306;8.566;2024-03-08T00:00:53;97918.00;;;5.00
15062;BMP180;7630;50.306;8.566;2024-03-08T00:04:55;97893.00;;;4.60
15062;BMP180;7630;50.306;8.566;2024-03-08T00:08:56;97899.00;;;4.70
15062;BMP180;7630;50.306;8.566;2024-03-08T00:12:57;97895.00;;;4.80
15062;BMP180;7630;50.306;8.566;2024-03-08T00:16:58;97894.00;;;5.70
15062;BMP180;7630;50.306;8.566;2024-03-08T00:20:59;97885.00;;;5.40
15062;BMP180;7630;50.306;8.566;2024-03-08T00:25:02;97888.00;;;5.00
15062;BMP180;7630;50.306;8.566;2024-03-08T00:29:04;97892.00;;;6.20
15062;BMP180;7630;50.306;8.566;2024-03-08T00:33:05;97885.00;;;5.00
15062;BMP180;7630;50.306;8.566;2024-03-08T00:37:06;97888.00;;;5.60
15062;BMP180;7630;50.306;8.566;2024-03-08T00:41:07;97872.00;;;4.50
15062;BMP180;7630;50.306;8.566;2024-03-08T00:45:10;97869.00;;;4.50
15062;BMP180;7630;50.306;8.566;2024-03-08T00:49:11;97882.00;;;5.10
15062;BMP180;7630;50.306;8.566;2024-03-08T00:53:13;97873.00;;;5.30
15062;BMP180;7630;50.306;8.566;2024-03-08T00:57:14;97861.00;;;5.70
15062;BMP180;7630;50.306;8.566;2024-03-08T01:01:15;97865.00;;;5.90
15062;BMP180;7630;50.306;8.566;2024-03-08T01:05:17;97858.00;;;5.70
15062;BMP180;7630;50.306;8.566;2024-03-08T01:09:18;97859.00;;;5.50
15062;BMP180;7630;50.306;8.566;2024-03-08T01:13:19;97848.00;;;4.40
15062;BMP180;7630;50.306;8.566;2024-03-08T01:17:21;97834.00;;;5.20
15062;BMP180;7630;50.306;8.566;2024-03-08T01:21:22;97832.00;;;4.30
15062;BMP180;7630;50.306;8.566;2024-03-08T01:25:23;97837.00;;;4.90
15062;BMP180;7630;50.306;8.566;2024-03-08T01:29:25;97834.00;;;5.40
15062;BMP180;7630;50.306;8.566;2024-03-08T01:33:26;97822.00;;;4.80
15062;BMP180;7630;50.306;8.566;2024-03-08T01:37:28;97807.00;;;3.60
15062;BMP180;7630;50.306;8.566;2024-03-08T01:41:30;97802.00;;;4.40
15062;BMP180;7630;50.306;8.566;2024-03-08T01:45:31;97801.00;;;4.20
15062;BMP180;7630;50.306;8.566;2024-03-08T01:49:34;97797.00;;;5.60
15062;BMP180;7630;50.306;8.566;2024-03-08T01:53:36;97786.00;;;5.50
15062;BMP180;7630;50.306;8.566;2024-03-08T01:57:37;97781.00;;;4.90
15062;BMP180;7630;50.306;8.566;2024-03-08T02:01:39;97781.00;;;4.10
15062;BMP180;7630;50.306;8.566;2024-03-08T02:05:40;97766.00;;;2.80
15062;BMP180;7630;50.306;8.566;2024-03-08T02:09:42;97754.00;;;3.90
15062;BMP180;7630;50.306;8.566;2024-03-08T02:13:43;97751.00;;;4.10
15062;BMP180;7630;50.306;8.566;2024-03-08T02:17:44;97752.00;;;3.70
15062;BMP180;7630;50.306;8.566;2024-03-08T02:21:46;97774.00;;;4.40
15062;BMP180;7630;50.306;8.566;2024-03-08T02:25:48;97755.00;;;3.40
15062;BMP180;7630;50.306;8.566;2024-03-08T02:29:50;97749.00;;;2.70
15062;BMP180;7630;50.306;8.566;2024-03-08T02:33:53;97742.00;;;3.60
15062;BMP180;7630;50.306;8.566;2024-03-08T02:37:55;97736.00;;;2.30
15062;BMP180;7630;50.306;8.566;2024-03-08T02:41:56;97733.00;;;2.60
15062;BMP180;7630;50.306;8.566;2024-03-08T02:45:57;97738.00;;;3.70
15062;BMP180;7630;50.306;8.566;2024-03-08T02:49:58;97726.00;;;3.60
15062;BMP180;7630;50.306;8.566;2024-03-08T02:53:59;97731.00;;;3.60
15062;BMP180;7630;50.306;8.566;2024-03-08T02:58:01;97735.00;;;3.40
15062;BMP180;7630;50.306;8.566;2024-03-08T03:02:04;97720.00;;;3.40
15062;BMP180;7630;50.306;8.566;2024-03-08T03:06:05;97720.00;;;3.30
15062;BMP180;7630;50.306;8.566;2024-03-08T03:10:08;97713.00;;;2.10
15062;BMP180;7630;50.306;8.566;2024-03-08T03:14:09;97709.00;;;1.90
15062;BMP180;7630;50.306;8.566;2024-03-08T03:18:10;97702.00;;;2.20
15062;BMP180;7630;50.306;8.566;2024-03-08T03:22:12;97704.00;;;1.70
15062;BMP180;7630;50.306;8.566;2024-03-08T03:26:13;97701.00;;;2.20
15062;BMP180;7630;50.306;8.566;2024-03-08T03:30:16;97685.00;;;1.90
15062;BMP180;7630;50.306;8.566;2024-03-08T03:34:22;97685.00;;;1.90
15062;BMP180;7630;50.306;8.566;2024-03-08T03:38:23;97690.00;;;2.30
15062;BMP180;7630;50.306;8.566;2024-03-08T03:42:26;97474.00;;;3.10
15062;BMP180;7630;50.306;8.566;2024-03-08T03:46:27;97681.00;;;2.10
15062;BMP180;7630;50.306;8.566;2024-03-08T03:50:28;97675.00;;;2.10
15062;BMP180;7630;50.306;8.566;2024-03-08T03:54:30;97669.00;;;2.50
15062;BMP180;7630;50.306;8.566;2024-03-08T03:58:31;97666.00;;;2.00
15062;BMP180;7630;50.306;8.566;2024-03-08T04:02:32;97690.00;;;3.10
15062;BMP180;7630;50.306;8.566;2024-03-08T04:06:33;97678.00;;;2.50
15062;BMP180;7630;50.306;8.566;2024-03-08T04:10:34;97672.00;;;2.40
15062;BMP180;7630;50.306;8.566;2024-03-08T04:14:35;97660.00;;;1.80
15062;BMP180;7630;50.306;8.566;2024-03-08T04:18:37;97662.00;;;1.40
15062;BMP180;7630;50.306;8.566;2024-03-08T04:22:38;97660.00;;;1.60
15062;BMP180;7630;50.306;8.566;2024-03-08T04:26:46;97667.00;;;1.10
15062;BMP180;7630;50.306;8.566;2024-03-08T04:30:48;97661.00;;;1.70
15062;BMP180;7630;50.306;8.566;2024-03-08T04:34:50;97666.00;;;2.50
15062;BMP180;7630;50.306;8.566;2024-03-08T04:38:51;97668.00;;;1.50
15062;BMP180;7630;50.306;8.566;2024-03-08T04:42:52;97662.00;;;2.10
15062;BMP180;7630;50.306;8.566;2024-03-08T04:46:54;97648.00;;;1.50
15062;BMP180;7630;50.306;8.566;2024-03-08T04:50:55;97661.00;;;1.10
15062;BMP180;7630;50.306;8.566;2024-03-08T04:54:57;97655.00;;;1.80
15062;BMP180;7630;50.306;8.566;2024-03-08T04:58:58;97647.00;;;1.50
15062;BMP180;7630;50.306;8.566;2024-03-08T05:02:59;97640.00;;;1.30
15062;BMP180;7630;50.306;8.566;2024-03-08T05:07:00;97643.00;;;1.90
15062;BMP180;7630;50.306;8.566;2024-03-08T05:11:02;97643.00;;;1.70
15062;BMP180;7630;50.306;8.566;2024-03-08T05:15:05;97639.00;;;1.90
15062;BMP180;7630;50.306;8.566;2024-03-08T05:19:08;97640.00;;;1.60
15062;BMP180;7630;50.306;8.566;2024-03-08T05:23:09;97644.00;;;1.70
15062;BMP180;7630;50.306;8.566;2024-03-08T05:27:10;97642.00;;;1.20
15062;BMP180;7630;50.306;8.566;2024-03-08T05:31:20;97649.00;;;1.80
15062;BMP180;7630;50.306;8.566;2024-03-08T05:35:23;97643.00;;;2.00
15062;BMP180;7630;50.306;8.566;2024-03-08T05:39:25;97643.00;;;1.60
15062;BMP180;7630;50.306;8.566;2024-03-08T05:43:26;97620.00;;;2.30
15062;BMP180;7630;50.306;8.566;2024-03-08T05:47:27;97632.00;;;2.20
15062;BMP180;7630;50.306;8.566;2024-03-08T05:51:31;97644.00;;;1.70
15062;BMP180;7630;50.306;8.566;2024-03-08T05:55:35;97638.00;;;1.50
15062;BMP180;7630;50.306;8.566;2024-03-08T05:59:36;97628.00;;;2.50
15062;BMP180;7630;50.306;8.566;2024-03-08T06:03:37;97636.00;;;2.50
15062;BMP180;7630;50.306;8.566;2024-03-08T06:07:40;97635.00;;;1.80
15062;BMP180;7630;50.306;8.566;2024-03-08T06:11:42;97635.00;;;1.60
15062;BMP180;7630;50.306;8.566;2024-03-08T06:15:44;97634.00;;;1.70
15062;BMP180;7630;50.306;8.566;2024-03-08T06:19:45;97630.00;;;2.30
15062;BMP180;7630;50.306;8.566;2024-03-08T06:23:47;97634.00;;;2.30
15062;BMP180;7630;50.306;8.566;2024-03-08T06:27:48;97635.00;;;2.30
15062;BMP180;7630;50.306;8.566;2024-03-08T06:31:49;97634.00;;;2.60
15062;BMP180;7630;50.306;8.566;2024-03-08T06:35:55;97629.00;;;2.20
15062;BMP180;7630;50.306;8.566;2024-03-08T06:39:58;97622.00;;;2.70
15062;BMP180;7630;50.306;8.566;2024-03-08T06:43:59;97634.00;;;2.40
15062;BMP180;7630;50.306;8.566;2024-03-08T06:48:00;97617.00;;;2.50
15062;BMP180;7630;50.306;8.566;2024-03-08T06:52:01;97627.00;;;3.20
15062;BMP180;7630;50.306;8.566;2024-03-08T06:56:03;97626.00;;;2.50
15062;BMP180;7630;50.306;8.566;2024-03-08T07:00:05;97629.00;;;2.70
15062;BMP180;7630;50.306;8.566;2024-03-08T07:04:09;97628.00;;;3.10
15062;BMP180;7630;50.306;8.566;2024-03-08T07:08:12;97625.00;;;2.20
15062;BMP180;7630;50.306;8.566;2024-03-08T07:12:15;97628.00;;;2.80
15062;BMP180;7630;50.306;8.566;2024-03-08T07:16:16;97624.00;;;2.30
15062;BMP180;7630;50.306;8.566;2024-03-08T07:20:17;97620.00;;;2.60
15062;BMP180;7630;50.306;8.566;2024-03-08T07:24:19;97611.00;;;3.10
15062;BMP180;7630;50.306;8.566;2024-03-08T07:28:28;97610.00;;;3.00
15062;BMP180;7630;50.306;8.566;2024-03-08T07:32:31;97607.00;;;4.00
15062;BMP180;7630;50.306;8.566;2024-03-08T07:36:33;97612.00;;;3.00
15062;BMP180;7630;50.306;8.566;2024-03-08T07:40:36;97609.00;;;2.80
15062;BMP180;7630;50.306;8.566;2024-03-08T07:44:39;97598.00;;;2.90
15062;BMP180;7630;50.306;8.566;2024-03-08T07:48:40;97603.00;;;3.60
15062;BMP180;7630;50.306;8.566;2024-03-08T07:52:42;97599.00;;;4.60
15062;BMP180;7630;50.306;8.566;2024-03-08T07:56:43;97605.00;;;5.30
15062;BMP180;7630;50.306;8.566;2024-03-08T08:00:44;97598.00;;;4.40
15062;BMP180;7630;50.306;8.566;2024-03-08T08:04:45;97595.00;;;4.20
15062;BMP180;7630;50.306;8.566;2024-03-08T08:08:47;97592.00;;;4.50
15062;BMP180;7630;50.306;8.566;2024-03-08T08:12:48;97580.00;;;3.70
15062;BMP180;7630;50.306;8.566;2024-03-08T08:16:50;97581.00;;;5.60
15062;BMP180;7630;50.306;8.566;2024-03-08T08:20:53;97574.00;;;5.50
15062;BMP180;7630;50.306;8.566;2024-03-08T08:24:54;97571.00;;;4.70
15062;BMP180;7630;50.306;8.566;2024-03-08T08:28:55;97567.00;;;4.80
15062;BMP180;7630;50.306;8.566;2024-03-08T08:32:57;97571.00;;;4.60
15062;BMP180;7630;50.306;8.566;2024-03-08T08:36:59;97568.00;;;4.90
15062;BMP180;7630;50.306;8.566;2024-03-08T08:41:00;97565.00;;;5.50
15062;BMP180;7630;50.306;8.566;2024-03-08T08:45:09;97565.00;;;4.90
15062;BMP180;7630;50.306;8.566;2024-03-08T08:49:12;97559.00;;;4.90
15062;BMP180;7630;50.306;8.566;2024-03-08T08:53:15;97546.00;;;5.10
15062;BMP180;7630;50.306;8.566;2024-03-08T08:57:18;97540.00;;;6.10
15062;BMP180;7630;50.306;8.566;2024-03-08T09:01:20;97549.00;;;4.50
15062;BMP180;7630;50.306;8.566;2024-03-08T09:05:21;97547.00;;;6.10
15062;BMP180;7630;50.306;8.566;2024-03-08T09:09:24;97526.00;;;6.70
15062;BMP180;7630;50.306;8.566;2024-03-08T09:13:26;97366.00;;;6.00
15062;BMP180;7630;50.306;8.566;2024-03-08T09:17:29;97529.00;;;5.50
15062;BMP180;7630;50.306;8.566;2024-03-08T09:21:31;97521.00;;;5.20
15062;BMP180;7630;50.306;8.566;2024-03-08T09:25:32;97512.00;;;6.40
15062;BMP180;7630;50.306;8.566;2024-03-08T09:29:34;97521.00;;;6.50
15062;BMP180;7630;50.306;8.566;2024-03-08T09:33:36;97497.00;;;7.00
15062;BMP180;7630;50.306;8.566;2024-03-08T09:37:37;97494.00;;;6.90
15062;BMP180;7630;50.306;8.566;2024-03-08T09:41:38;97492.00;;;5.90
15062;BMP180;7630;50.306;8.566;2024-03-08T09:45:40;97480.00;;;6.30
15062;BMP180;7630;50.306;8.566;2024-03-08T09:49:42;97471.00;;;6.10
15062;BMP180;7630;50.306;8.566;2024-03-08T09:53:44;97472.00;;;6.20
15062;BMP180;7630;50.306;8.566;2024-03-08T09:57:47;97468.00;;;7.40
15062;BMP180;7630;50.306;8.566;2024-03-08T10:01:51;97451.00;;;6.50
15062;BMP180;7630;50.306;8.566;2024-03-08T10:05:59;97456.00;;;6.40
15062;BMP180;7630;50.306;8.566;2024-03-08T10:10:01;97439.00;;;6.20
15062;BMP180;7630;50.306;8.566;2024-03-08T10:14:03;97433.00;;;6.60
15062;BMP180;7630;50.306;8.566;2024-03-08T10:18:06;97440.00;;;5.90
15062;BMP180;7630;50.306;8.566;2024-03-08T10:22:14;97434.00;;;7.10
15062;BMP180;7630;50.306;8.566;2024-03-08T10:26:16;97428.00;;;6.50
15062;BMP180;7630;50.306;8.566;2024-03-08T10:30:18;97409.00;;;7.20
15062;BMP180;7630;50.306;8.566;2024-03-08T10:34:20;97442.00;;;7.10
15062;BMP180;7630;50.306;8.566;2024-03-08T10:38:25;97414.00;;;7.00
15062;BMP180;7630;50.306;8.566;2024-03-08T10:42:28;97422.00;;;8.10
15062;BMP180;7630;50.306;8.566;2024-03-08T10:50:44;97412.00;;;8.60
15062;BMP180;7630;50.306;8.566;2024-03-08T10:54:47;97414.00;;;7.70
15062;BMP180;7630;50.306;8.566;2024-03-08T10:58:50;97405.00;;;7.50
15062;BMP180;7630;50.306;8.566;2024-03-08T11:02:52;97399.00;;;9.00
15062;BMP180;7630;50.306;8.566;2024-03-08T11:07:02;97395.00;;;7.60
15062;BMP180;7630;50.306;8.566;2024-03-08T11:15:29;97390.00;;;8.30
15062;BMP180;7630;50.306;8.566;2024-03-08T11:19:31;97380.00;;;8.50
15062;BMP180;7630;50.306;8.566;2024-03-08T11:23:33;97382.00;;;9.20
15062;BMP180;7630;50.306;8.566;2024-03-08T11:27:35;97364.00;;;9.30
15062;BMP180;7630;50.306;8.566;2024-03-08T11:31:36;97368.00;;;9.70
15062;BMP180;7630;50.306;8.566;2024-03-08T11:35:39;97364.00;;;8.60
15062;BMP180;7630;50.306;8.566;2024-03-08T11:39:48;97364.00;;;8.10
15062;BMP180;7630;50.306;8.566;2024-03-08T11:44:01;97356.00;;;8.50
15062;BMP180;7630;50.306;8.566;2024-03-08T11:47:59;97346.00;;;8.90
15062;BMP180;7630;50.306;8.566;2024-03-08T11:52:00;97342.00;;;10.10
15062;BMP180;7630;50.306;8.566;2024-03-08T11:56:12;97338.00;;;10.40
15062;BMP180;7630;50.306;8.566;2024-03-08T12:00:18;97328.00;;;9.60
15062;BMP180;7630;50.306;8.566;2024-03-08T12:04:22;97335.00;;;9.80
15062;BMP180;7630;50.306;8.566;2024-03-08T12:08:25;97323.00;;;11.00
15062;BMP180;7630;50.306;8.566;2024-03-08T12:12:28;97313.00;;;10.40
15062;BMP180;7630;50.306;8.566;2024-03-08T12:16:29;97290.00;;;10.60
15062;BMP180;7630;50.306;8.566;2024-03-08T12:20:31;97294.00;;;10.20
15062;BMP180;7630;50.306;8.566;2024-03-08T12:24:32;97307.00;;;10.30
15062;BMP180;7630;50.306;8.566;2024-03-08T12:28:33;97312.00;;;9.90
15062;BMP180;7630;50.306;8.566;2024-03-08T12:32:36;97294.00;;;9.90
15062;BMP180;7630;50.306;8.566;2024-03-08T12:36:46;97292.00;;;9.90
15062;BMP180;7630;50.306;8.566;2024-03-08T12:40:44;97293.00;;;9.40
15062;BMP180;7630;50.306;8.566;2024-03-08T12:44:45;97287.00;;;11.50
15062;BMP180;7630;50.306;8.566;2024-03-08T12:48:48;97288.00;;;10.70
15062;BMP180;7630;50.306;8.566;2024-03-08T12:52:49;97281.00;;;10.50
15062;BMP180;7630;50.306;8.566;2024-03-08T12:56:52;97271.00;;;11.60
15062;BMP180;7630;50.306;8.566;2024-03-08T13:00:56;97262.00;;;11.00
15062;BMP180;7630;50.306;8.566;2024-03-08T13:04:58;97254.00;;;11.50
15062;BMP180;7630;50.306;8.566;2024-03-08T13:08:59;97259.00;;;12.20
15062;BMP180;7630;50.306;8.566;2024-03-08T13:13:03;97248.00;;;10.30
15062;BMP180;7630;50.306;8.566;2024-03-08T13:17:05;97253.00;;;10.60
15062;BMP180;7630;50.306;8.566;2024-03-08T13:21:08;97241.00;;;11.70
15062;BMP180;7630;50.306;8.566;2024-03-08T13:25:10;97230.00;;;11.20
15062;BMP180;7630;50.306;8.566;2024-03-08T13:29:14;97240.00;;;12.20
15062;BMP180;7630;50.306;8.566;2024-03-08T13:33:15;97239.00;;;11.30
15062;BMP180;7630;50.306;8.566;2024-03-08T13:37:17;97239.00;;;11.90
15062;BMP180;7630;50.306;8.566;2024-03-08T13:41:18;97222.00;;;11.10
15062;BMP180;7630;50.306;8.566;2024-03-08T13:45:21;97206.00;;;10.90
15062;BMP180;7630;50.306;8.566;2024-03-08T13:49:24;97206.00;;;10.90
15062;BMP180;7630;50.306;8.566;2024-03-08T13:53:27;97191.00;;;12.50
15062;BMP180;7630;50.306;8.566;2024-03-08T13:57:28;97189.00;;;11.30
15062;BMP180;7630;50.306;8.566;2024-03-08T14:01:29;97188.00;;;10.60
15062;BMP180;7630;50.306;8.566;2024-03-08T14:05:31;97188.00;;;9.20
15062;BMP180;7630;50.306;8.566;2024-03-08T14:09:34;97177.00;;;10.30
15062;BMP180;7630;50.306;8.566;2024-03-08T14:13:44;97182.00;;;10.50
15062;BMP180;7630;50.306;8.566;2024-03-08T14:17:55;97166.00;;;10.80
15062;BMP180;7630;50.306;8.566;2024-03-08T14:21:56;97166.00;;;11.30
15062;BMP180;7630;50.306;8.566;2024-03-08T14:26:00;97163.00;;;11.80
15062;BMP180;7630;50.306;8.566;2024-03-08T14:30:01;97148.00;;;11.60
15062;BMP180;7630;50.306;8.566;2024-03-08T14:34:04;97140.00;;;11.90
15062;BMP180;7630;50.306;8.566;2024-03-08T14:38:05;97144.00;;;10.00
15062;BMP180;7630;50.306;8.566;2024-03-08T14:42:08;97125.00;;;11.00
15062;BMP180;7630;50.306;8.566;2024-03-08T14:46:12;97120.00;;;10.00
15062;BMP180;7630;50.306;8.566;2024-03-08T14:50:22;97110.00;;;10.00
15062;BMP180;7630;50.306;8.566;2024-03-08T14:54:24;97111.00;;;9.70
15062;BMP180;7630;50.306;8.566;2024-03-08T14:58:25;97067.00;;;10.90
15062;BMP180;7630;50.306;8.566;2024-03-08T15:02:28;97073.00;;;10.80
15062;BMP180;7630;50.306;8.566;2024-03-08T15:06:29;97084.00;;;10.80
15062;BMP180;7630;50.306;8.566;2024-03-08T15:10:32;97078.00;;;10.20
15062;BMP180;7630;50.306;8.566;2024-03-08T15:14:42;97080.00;;;10.10
15062;BMP180;7630;50.306;8.566;2024-03-08T15:18:45;97076.00;;;10.20
15062;BMP180;7630;50.306;8.566;2024-03-08T15:22:51;97074.00;;;11.40
15062;BMP180;7630;50.306;8.566;2024-03-08T15:26:57;97069.00;;;11.40
15062;BMP180;7630;50.306;8.566;2024-03-08T15:30:59;97061.00;;;10.60
15062;BMP180;7630;50.306;8.566;2024-03-08T15:35:02;97054.00;;;10.30
15062;BMP180;7630;50.306;8.566;2024-03-08T15:39:04;97047.00;;;10.20
15062;BMP180;7630;50.306;8.566;2024-03-08T15:43:07;97052.00;;;9.70
15062;BMP180;7630;50.306;8.566;2024-03-08T15:47:09;97049.00;;;9.70
15062;BMP180;7630;50.306;8.566;2024-03-08T15:51:12;97046.00;;;10.80
15062;BMP180;7630;50.306;8.566;2024-03-08T15:55:19;97050.00;;;11.60
15062;BMP180;7630;50.306;8.566;2024-03-08T15:59:20;97046.00;;;10.10
15062;BMP180;7630;50.306;8.566;2024-03-08T16:03:22;97040.00;;;10.60
15062;BMP180;7630;50.306;8.566;2024-03-08T16:07:23;97042.00;;;9.80
15062;BMP180;7630;50.306;8.566;2024-03-08T16:11:24;97029.00;;;10.70
15062;BMP180;7630;50.306;8.566;2024-03-08T16:15:26;97028.00;;;9.90
15062;BMP180;7630;50.306;8.566;2024-03-08T16:19:27;97016.00;;;10.10
15062;BMP180;7630;50.306;8.566;2024-03-08T16:23:30;97032.00;;;11.10
15062;BMP180;7630;50.306;8.566;2024-03-08T16:27:32;97020.00;;;10.10
15062;BMP180;7630;50.306;8.566;2024-03-08T16:31:33;97020.00;;;10.40
15062;BMP180;7630;50.306;8.566;2024-03-08T16:35:34;97017.00;;;10.30
15062;BMP180;7630;50.306;8.566;2024-03-08T16:39:37;97017.00;;;11.30
15062;BMP180;7630;50.306;8.566;2024-03-08T16:43:39;97015.00;;;11.60
15062;BMP180;7630;50.306;8.566;2024-03-08T16:47:40;97013.00;;;10.60
15062;BMP180;7630;50.306;8.566;2024-03-08T16:51:43;97011.00;;;10.40
15062;BMP180;7630;50.306;8.566;2024-03-08T16:55:44;97004.00;;;10.50
15062;BMP180;7630;50.306;8.566;2024-03-08T16:59:47;97007.00;;;10.40
15062;BMP180;7630;50.306;8.566;2024-03-08T17:03:48;97009.00;;;10.40
15062;BMP180;7630;50.306;8.566;2024-03-08T17:07:51;97007.00;;;10.50
15062;BMP180;7630;50.306;8.566;2024-03-08T17:11:52;97000.00;;;9.70
15062;BMP180;7630;50.306;8.566;2024-03-08T17:15:53;97001.00;;;9.90
15062;BMP180;7630;50.306;8.566;2024-03-08T17:19:55;97007.00;;;8.90
15062;BMP180;7630;50.306;8.566;2024-03-08T17:23:56;96998.00;;;8.70
15062;BMP180;7630;50.306;8.566;2024-03-08T17:27:57;96993.00;;;9.90
15062;BMP180;7630;50.306;8.566;2024-03-08T17:32:00;97007.00;;;9.70
15062;BMP180;7630;50.306;8.566;2024-03-08T17:36:02;96998.00;;;10.30
15062;BMP180;7630;50.306;8.566;2024-03-08T17:40:06;97003.00;;;10.50
15062;BMP180;7630;50.306;8.566;2024-03-08T17:44:09;97002.00;;;9.50
15062;BMP180;7630;50.306;8.566;2024-03-08T17:48:10;97013.00;;;10.20
15062;BMP180;7630;50.306;8.566;2024-03-08T17:52:17;97005.00;;;10.50
15062;BMP180;7630;50.306;8.566;2024-03-08T17:56:18;97000.00;;;9.40
15062;BMP180;7630;50.306;8.566;2024-03-08T18:00:21;97005.00;;;8.70
15062;BMP180;7630;50.306;8.566;2024-03-08T18:04:36;97005.00;;;9.30
15062;BMP180;7630;50.306;8.566;2024-03-08T18:08:38;96851.00;;;9.10
15062;BMP180;7630;50.306;8.566;2024-03-08T18:12:39;96992.00;;;9.00
15062;BMP180;7630;50.306;8.566;2024-03-08T18:16:40;96993.00;;;8.80
15062;BMP180;7630;50.306;8.566;2024-03-08T18:20:43;96978.00;;;8.90
15062;BMP180;7630;50.306;8.566;2024-03-08T18:24:50;96973.00;;;7.70
15062;BMP180;7630;50.306;8.566;2024-03-08T18:28:52;96982.00;;;8.80
15062;BMP180;7630;50.306;8.566;2024-03-08T18:32:54;96981.00;;;9.30
15062;BMP180;7630;50.306;8.566;2024-03-08T18:36:55;96985.00;;;9.00
15062;BMP180;7630;50.306;8.566;2024-03-08T18:40:57;96988.00;;;8.80
15062;BMP180;7630;50.306;8.566;2024-03-08T18:44:59;96984.00;;;9.10
15062;BMP180;7630;50.306;8.566;2024-03-08T18:49:00;96985.00;;;8.80
15062;BMP180;7630;50.306;8.566;2024-03-08T18:53:01;96974.00;;;8.70
15062;BMP180;7630;50.306;8.566;2024-03-08T18:57:03;96984.00;;;8.70
15062;BMP180;7630;50.306;8.566;2024-03-08T19:01:06;96971.00;;;8.70
15062;BMP180;7630;50.306;8.566;2024-03-08T19:05:08;96961.00;;;8.20
15062;BMP180;7630;50.306;8.566;2024-03-08T19:09:11;97003.00;;;8.70
15062;BMP180;7630;50.306;8.566;2024-03-08T19:13:14;96959.00;;;8.60
15062;BMP180;7630;50.306;8.566;2024-03-08T19:17:17;96943.00;;;8.70
15062;BMP180;7630;50.306;8.566;2024-03-08T19:21:18;96956.00;;;8.80
15062;BMP180;7630;50.306;8.566;2024-03-08T19:25:32;96942.00;;;10.80
15062;BMP180;7630;50.306;8.566;2024-03-08T19:29:34;96949.00;;;10.10
15062;BMP180;7630;50.306;8.566;2024-03-08T19:33:35;96940.00;;;9.20
15062;BMP180;7630;50.306;8.566;2024-03-08T19:37:38;96928.00;;;8.20
15062;BMP180;7630;50.306;8.566;2024-03-08T19:41:40;96937.00;;;8.40
15062;BMP180;7630;50.306;8.566;2024-03-08T19:45:41;96940.00;;;8.80
15062;BMP180;7630;50.306;8.566;2024-03-08T19:49:44;96942.00;;;7.80
15062;BMP180;7630;50.306;8.566;2024-03-08T19:53:45;96935.00;;;7.60
15062;BMP180;7630;50.306;8.566;2024-03-08T19:57:50;96947.00;;;7.90
15062;BMP180;7630;50.306;8.566;2024-03-08T20:01:57;96943.00;;;8.90
15062;BMP180;7630;50.306;8.566;2024-03-08T20:05:59;96945.00;;;7.90
15062;BMP180;7630;50.306;8.566;2024-03-08T20:10:00;96937.00;;;7.60
15062;BMP180;7630;50.306;8.566;2024-03-08T20:14:03;96930.00;;;7.40
15062;BMP180;7630;50.306;8.566;2024-03-08T20:18:06;96936.00;;;7.10
15062;BMP180;7630;50.306;8.566;2024-03-08T20:22:09;96930.00;;;7.30
15062;BMP180;7630;50.306;8.566;2024-03-08T20:26:10;96925.00;;;7.10
15062;BMP180;7630;50.306;8.566;2024-03-08T20:30:13;96921.00;;;6.70
15062;BMP180;7630;50.306;8.566;2024-03-08T20:34:15;96924.00;;;6.70
15062;BMP180;7630;50.306;8.566;2024-03-08T20:38:17;96911.00;;;7.30
15062;BMP180;7630;50.306;8.566;2024-03-08T20:42:20;96913.00;;;7.20
15062;BMP180;7630;50.306;8.566;2024-03-08T20:46:21;96911.00;;;6.90
15062;BMP180;7630;50.306;8.566;2024-03-08T20:50:23;96901.00;;;6.50
15062;BMP180;7630;50.306;8.566;2024-03-08T20:54:25;96903.00;;;7.20
15062;BMP180;7630;50.306;8.566;2024-03-08T20:58:26;96885.00;;;6.90
15062;BMP180;7630;50.306;8.566;2024-03-08T21:02:28;96903.00;;;6.50
15062;BMP180;7630;50.306;8.566;2024-03-08T21:06:29;96900.00;;;6.90
15062;BMP180;7630;50.306;8.566;2024-03-08T21:10:34;96907.00;;;6.60
15062;BMP180;7630;50.306;8.566;2024-03-08T21:14:39;96892.00;;;7.00
15062;BMP180;7630;50.306;8.566;2024-03-08T21:18:40;96912.00;;;6.70
15062;BMP180;7630;50.306;8.566;2024-03-08T21:22:41;96890.00;;;7.80
15062;BMP180;7630;50.306;8.566;2024-03-08T21:26:42;96889.00;;;7.60
15062;BMP180;7630;50.306;8.566;2024-03-08T21:30:43;96890.00;;;8.00
15062;BMP180;7630;50.306;8.566;2024-03-08T21:34:46;96895.00;;;7.80
15062;BMP180;7630;50.306;8.566;2024-03-08T21:38:47;96900.00;;;8.10
15062;BMP180;7630;50.306;8.566;2024-03-08T21:42:49;96887.00;;;7.30
15062;BMP180;7630;50.306;8.566;2024-03-08T21:46:51;96900.00;;;8.90
15062;BMP180;7630;50.306;8.566;2024-03-08T21:50:53;96907.00;;;9.20
15062;BMP180;7630;50.306;8.566;2024-03-08T21:54:56;96892.00;;;9.20
15062;BMP180;7630;50.306;8.566;2024-03-08T21:58:57;96902.00;;;9.30
15062;BMP180;7630;50.306;8.566;2024-03-08T22:02:58;96901.00;;;9.60
15062;BMP180;7630;50.306;8.566;2024-03-08T22:07:01;96889.00;;;8.60
15062;BMP180;7630;50.306;8.566;2024-03-08T22:11:04;96894.00;;;9.10
15062;BMP180;7630;50.306;8.566;2024-03-08T22:15:07;96881.00;;;7.90
15062;BMP180;7630;50.306;8.566;2024-03-08T22:19:10;96885.00;;;8.90
15062;BMP180;7630;50.306;8.566;2024-03-08T22:23:11;96888.00;;;9.30
15062;BMP180;7630;50.306;8.566;2024-03-08T22:27:12;96894.00;;;8.80
15062;BMP180;7630;50.306;8.566;2024-03-08T22:31:13;96891.00;;;8.60
15062;BMP180;7630;50.306;8.566;2024-03-08T22:35:16;96889.00;;;9.20
15062;BMP180;7630;50.306;8.566;2024-03-08T22:39:17;96890.00;;;8.90
15062;BMP180;7630;50.306;8.566;2024-03-08T22:43:19;96888.00;;;8.80
15062;BMP180;7630;50.306;8.566;2024-03-08T22:47:20;96897.00;;;8.40
15062;BMP180;7630;50.306;8.566;2024-03-08T22:51:23;96908.00;;;8.40
15062;BMP180;7630;50.306;8.566;2024-03-08T22:55:26;96898.00;;;8.60
15062;BMP180;7630;50.306;8.566;2024-03-08T22:59:27;96890.00;;;8.30
15062;BMP180;7630;50.306;8.566;2024-03-08T23:03:28;96898.00;;;8.50
15062;BMP180;7630;50.306;8.566;2024-03-08T23:07:34;96891.00;;;8.00
15062;BMP180;7630;50.306;8.566;2024-03-08T23:11:36;96886.00;;;7.80
15062;BMP180;7630;50.306;8.566;2024-03-08T23:15:37;96885.00;;;7.00
15062;BMP180;7630;50.306;8.566;2024-03-08T23:19:42;96892.00;;;6.70
15062;BMP180;7630;50.306;8.566;2024-03-08T23:23:45;96892.00;;;7.30
15062;BMP180;7630;50.306;8.566;2024-03-08T23:27:48;96896.00;;;7.00
15062;BMP180;7630;50.306;8.566;2024-03-08T23:31:52;96712.00;;;7.70
15062;BMP180;7630;50.306;8.566;2024-03-08T23:35:55;96886.00;;;6.90
15062;BMP180;7630;50.306;8.566;2024-03-08T23:39:56;96891.00;;;6.60
15062;BMP180;7630;50.306;8.566;2024-03-08T23:43:57;96732.00;;;6.40
15062;BMP180;7630;50.306;8.566;2024-03-08T23:47:59;96888.00;;;6.60
15062;BMP180;7630;50.306;8.566;2024-03-08T23:52:01;96882.00;;;6.60
15062;BMP180;7630;50.306;8.566;2024-03-08T23:56:02;96877.00;;;5.90
